createdAt,value
2019-05-16T00:01:19.298Z,90.40
2019-05-16T00:03:49.143Z,90.40
2019-05-16T00:06:18.643Z,90.70
2019-05-16T00:08:48.242Z,91.20
2019-05-16T00:11:18.195Z,91.50
2019-05-16T00:13:48.868Z,91.60
2019-05-16T00:16:18.936Z,91.50
2019-05-16T00:18:48.435Z,91.60
2019-05-16T00:21:18.097Z,92.00
2019-05-16T00:23:48.553Z,91.90
2019-05-16T00:26:19.761Z,92.50
2019-05-16T00:28:49.480Z,92.60
2019-05-16T00:31:18.798Z,92.30
2019-05-16T00:33:48.667Z,92.40
2019-05-16T00:36:18.908Z,92.50
2019-05-16T00:38:48.655Z,92.70
2019-05-16T00:41:18.218Z,92.90
2019-05-16T00:43:48.517Z,93.40
2019-05-16T00:46:20.022Z,93.60
2019-05-16T00:48:49.174Z,93.00
2019-05-16T00:51:18.674Z,93.10
2019-05-16T00:53:49.107Z,93.20
2019-05-16T00:56:18.848Z,93.10
2019-05-16T00:58:48.718Z,93.40
2019-05-16T01:01:19.039Z,93.70
2019-05-16T01:03:48.611Z,94.20
2019-05-16T01:06:22.514Z,93.90
2019-05-16T01:08:49.071Z,93.90
2019-05-16T01:11:18.783Z,93.90
2019-05-16T01:13:48.778Z,94.30
2019-05-16T01:16:18.832Z,94.10
2019-05-16T01:18:48.882Z,94.10
2019-05-16T01:21:18.745Z,94.10
2019-05-16T01:23:48.367Z,94.20
2019-05-16T01:26:18.532Z,94.00
2019-05-16T01:28:48.496Z,94.50
2019-05-16T01:31:19.145Z,94.40
2019-05-16T01:33:48.862Z,94.50
2019-05-16T01:36:31.833Z,94.20
2019-05-16T01:38:49.267Z,94.20
2019-05-16T01:41:18.727Z,94.20
2019-05-16T01:43:48.503Z,94.40
2019-05-16T01:46:18.290Z,94.40
2019-05-16T01:48:48.452Z,94.60
2019-05-16T01:51:18.512Z,94.50
2019-05-16T01:53:48.818Z,94.90
2019-05-16T01:56:18.448Z,95.00
2019-05-16T01:58:48.955Z,95.30
2019-05-16T02:01:19.086Z,95.40
2019-05-16T02:03:48.851Z,95.40
2019-05-16T02:06:18.490Z,95.50
2019-05-16T02:08:48.767Z,95.30
2019-05-16T02:11:18.363Z,95.20
2019-05-16T02:13:48.408Z,95.20
2019-05-16T02:16:18.810Z,95.50
2019-05-16T02:18:48.984Z,95.40
2019-05-16T02:21:18.487Z,95.70
2019-05-16T02:23:51.345Z,96.10
2019-05-16T02:26:19.311Z,96.30
2019-05-16T02:28:50.670Z,96.20
2019-05-16T02:31:22.723Z,96.20
2019-05-16T02:33:51.366Z,96.20
2019-05-16T02:36:21.711Z,96.30
2019-05-16T02:38:55.378Z,96.30
2019-05-16T02:41:22.378Z,96.00
2019-05-16T02:43:51.874Z,96.10
2019-05-16T02:46:22.244Z,96.00
2019-05-16T02:48:52.636Z,96.20
2019-05-16T02:51:21.970Z,96.20
2019-05-16T02:53:51.384Z,96.20
2019-05-16T02:56:21.326Z,96.10
2019-05-16T02:58:52.034Z,96.20
2019-05-16T03:01:21.807Z,96.30
2019-05-16T03:03:51.696Z,96.50
2019-05-16T03:06:21.820Z,96.30
2019-05-16T03:08:53.757Z,96.20
2019-05-16T03:11:24.680Z,96.50
2019-05-16T03:13:54.996Z,96.70
2019-05-16T03:16:26.028Z,96.80
2019-05-16T03:18:57.165Z,96.80
2019-05-16T03:21:30.854Z,96.60
2019-05-16T03:24:00.842Z,97.10
2019-05-16T03:26:31.437Z,97.10
2019-05-16T03:29:01.213Z,97.00
2019-05-16T03:31:34.051Z,96.80
2019-05-16T03:34:07.642Z,96.70
2019-05-16T03:36:34.369Z,96.80
2019-05-16T03:39:05.097Z,96.90
2019-05-16T03:41:34.532Z,97.00
2019-05-16T03:44:03.923Z,96.80
2019-05-16T03:46:33.222Z,96.50
2019-05-16T03:49:03.733Z,96.80
2019-05-16T03:51:33.044Z,97.20
2019-05-16T03:54:03.004Z,97.30
2019-05-16T03:56:32.584Z,97.60
2019-05-16T03:59:01.913Z,97.20
2019-05-16T04:01:31.561Z,97.20
2019-05-16T04:04:01.640Z,97.60
2019-05-16T04:06:31.334Z,97.40
2019-05-16T04:09:01.654Z,97.20
2019-05-16T04:11:32.130Z,97.10
2019-05-16T04:14:01.771Z,97.10
2019-05-16T04:16:31.574Z,97.10
2019-05-16T04:19:01.899Z,96.90
2019-05-16T04:21:32.514Z,96.80
2019-05-16T04:24:03.249Z,96.70
2019-05-16T04:26:35.859Z,97.10
2019-05-16T04:29:03.655Z,97.20
2019-05-16T04:31:32.950Z,97.20
2019-05-16T04:34:02.280Z,97.10
2019-05-16T04:36:32.703Z,97.00
2019-05-16T04:39:02.287Z,97.00
2019-05-16T04:41:31.695Z,96.90
2019-05-16T04:44:04.513Z,96.90
2019-05-16T04:46:32.018Z,97.10
2019-05-16T04:49:01.870Z,97.10
2019-05-16T04:51:31.340Z,97.00
2019-05-16T04:54:01.995Z,96.50
2019-05-16T04:56:31.676Z,96.70
2019-05-16T04:59:01.013Z,96.50
2019-05-16T05:01:30.844Z,96.30
2019-05-16T05:04:10.271Z,96.00
2019-05-16T05:06:31.594Z,96.10
2019-05-16T05:09:03.473Z,96.30
2019-05-16T05:11:32.263Z,95.80
2019-05-16T05:14:01.584Z,95.90
2019-05-16T05:16:30.948Z,96.00
2019-05-16T05:19:00.496Z,95.90
2019-05-16T05:21:31.353Z,95.90
2019-05-16T05:24:01.056Z,95.60
2019-05-16T05:26:30.647Z,95.60
2019-05-16T05:29:00.180Z,95.90
2019-05-16T05:31:35.038Z,96.00
2019-05-16T05:34:01.347Z,96.00
2019-05-16T05:36:30.879Z,95.80
2019-05-16T05:39:11.237Z,95.80
2019-05-16T05:41:32.722Z,95.80
2019-05-16T05:44:02.034Z,95.90
2019-05-16T05:46:31.757Z,95.40
2019-05-16T05:49:01.274Z,95.40
2019-05-16T05:51:30.754Z,95.90
2019-05-16T05:54:00.268Z,95.70
2019-05-16T05:56:30.540Z,95.70
2019-05-16T05:59:01.543Z,95.20
2019-05-16T06:01:31.566Z,95.10
2019-05-16T06:04:01.095Z,95.20
2019-05-16T06:06:30.538Z,95.20
2019-05-16T06:09:00.718Z,95.40
2019-05-16T06:11:30.832Z,94.90
2019-05-16T06:14:03.326Z,94.20
2019-05-16T06:16:31.471Z,94.40
2019-05-16T06:19:00.967Z,94.30
2019-05-16T06:21:33.146Z,93.70
2019-05-16T06:24:02.533Z,94.00
2019-05-16T06:26:32.853Z,94.10
2019-05-16T06:29:02.260Z,93.80
2019-05-16T06:31:31.610Z,92.90
2019-05-16T06:34:08.555Z,93.10
2019-05-16T06:36:32.394Z,93.20
2019-05-16T06:39:01.734Z,92.90
2019-05-16T06:41:32.766Z,93.20
2019-05-16T06:44:02.071Z,92.30
2019-05-16T06:46:37.620Z,92.20
2019-05-16T06:49:02.393Z,91.90
2019-05-16T06:51:31.714Z,90.90
2019-05-16T06:54:01.020Z,91.10
2019-05-16T06:56:31.000Z,91.10
2019-05-16T06:59:00.861Z,90.60
2019-05-16T07:01:30.317Z,90.50
2019-05-16T07:04:00.149Z,90.10
2019-05-16T07:06:50.370Z,90.40
2019-05-16T07:09:01.050Z,88.90
2019-05-16T07:11:32.189Z,88.00
2019-05-16T07:14:01.522Z,87.90
2019-05-16T07:16:30.807Z,88.00
2019-05-16T07:19:00.905Z,87.80
2019-05-16T07:21:31.392Z,87.30
2019-05-16T07:24:00.728Z,86.10
2019-05-16T07:26:30.963Z,89.20
2019-05-16T07:29:00.566Z,85.60
2019-05-16T07:31:30.194Z,85.70
2019-05-16T07:34:00.809Z,85.00
2019-05-16T07:36:33.018Z,84.00
2019-05-16T07:39:03.077Z,81.80
2019-05-16T07:41:32.444Z,82.60
2019-05-16T07:44:01.781Z,82.20
2019-05-16T07:46:31.672Z,80.90
2019-05-16T07:49:02.362Z,81.60
2019-05-16T07:51:31.720Z,80.00
2019-05-16T07:54:01.028Z,78.00
2019-05-16T07:56:30.940Z,77.30
2019-05-16T07:59:01.705Z,75.10
2019-05-16T08:01:31.090Z,77.60
2019-05-16T08:04:00.478Z,76.80
2019-05-16T08:06:33.672Z,75.70
2019-05-16T08:09:00.904Z,77.30
2019-05-16T08:11:31.818Z,75.20
2019-05-16T08:14:01.158Z,75.80
2019-05-16T08:16:30.790Z,75.00
2019-05-16T08:19:00.859Z,73.50
2019-05-16T08:21:30.980Z,72.10
2019-05-16T08:24:07.169Z,70.90
2019-05-16T08:26:38.230Z,70.60
2019-05-16T08:29:03.697Z,70.00
2019-05-16T08:31:33.056Z,69.90
2019-05-16T08:34:05.305Z,70.20
2019-05-16T08:36:34.879Z,71.20
2019-05-16T08:39:07.447Z,70.80
2019-05-16T08:41:42.392Z,70.00
2019-05-16T08:44:14.064Z,68.80
2019-05-16T08:46:57.145Z,67.90
2019-05-16T08:49:22.123Z,68.20
2019-05-16T08:52:06.142Z,66.20
2019-05-16T08:54:47.216Z,67.50
2019-05-16T08:59:54.427Z,66.70
2019-05-16T09:02:32.269Z,65.30
2019-05-16T09:04:54.769Z,66.50
2019-05-16T09:07:24.108Z,65.10
2019-05-16T09:09:53.411Z,67.10
2019-05-16T09:10:40.105Z,67.10
2019-05-16T09:12:22.872Z,66.40
2019-05-16T09:14:52.205Z,66.00
2019-05-16T09:17:21.683Z,65.80
2019-05-16T09:19:57.812Z,66.10
2019-05-16T09:22:28.537Z,67.30
2019-05-16T09:24:58.173Z,65.30
2019-05-16T09:27:27.523Z,67.10
2019-05-16T09:29:57.106Z,67.80
2019-05-16T09:32:28.426Z,67.10
2019-05-16T09:34:57.924Z,67.90
2019-05-16T09:37:27.392Z,67.60
2019-05-16T09:39:59.306Z,65.10
2019-05-16T09:42:29.624Z,64.10
2019-05-16T09:45:00.227Z,65.00
2019-05-16T09:47:29.182Z,65.90
2019-05-16T09:49:59.403Z,67.10
2019-05-16T09:52:29.185Z,64.40
2019-05-16T09:54:58.959Z,64.20
2019-05-16T09:57:28.601Z,63.60
2019-05-16T09:59:58.112Z,63.40
2019-05-16T10:02:27.621Z,64.70
2019-05-16T10:04:57.985Z,61.20
2019-05-16T10:07:28.416Z,61.70
2019-05-16T10:09:57.314Z,61.00
2019-05-16T10:12:26.737Z,63.10
2019-05-16T10:14:59.128Z,61.90
2019-05-16T10:17:27.356Z,63.50
2019-05-16T10:20:00.128Z,60.50
2019-05-16T10:22:27.922Z,62.30
2019-05-16T10:24:57.395Z,61.30
2019-05-16T10:27:27.909Z,60.40
2019-05-16T10:30:01.040Z,62.00
2019-05-16T10:32:28.380Z,62.10
2019-05-16T10:34:57.866Z,63.50
2019-05-16T10:37:27.257Z,60.70
2019-05-16T10:39:59.454Z,61.40
2019-05-16T10:42:29.210Z,57.80
2019-05-16T10:44:58.785Z,58.60
2019-05-16T10:47:31.064Z,56.70
2019-05-16T10:49:59.095Z,57.20
2019-05-16T10:52:28.416Z,55.30
2019-05-16T10:55:02.099Z,55.00
2019-05-16T10:57:30.017Z,55.30
2019-05-16T11:00:09.196Z,52.70
2019-05-16T11:02:30.982Z,54.70
2019-05-16T11:05:14.366Z,56.80
2019-05-16T11:07:31.413Z,54.00
2019-05-16T11:10:03.448Z,55.80
2019-05-16T11:12:46.088Z,56.80
2019-05-16T11:15:03.119Z,58.10
2019-05-16T11:17:32.453Z,56.30
2019-05-16T11:20:01.863Z,53.50
2019-05-16T11:22:31.245Z,54.70
2019-05-16T11:25:00.556Z,55.20
2019-05-16T11:27:29.922Z,55.90
2019-05-16T11:29:59.328Z,55.40
2019-05-16T11:32:28.638Z,52.80
2019-05-16T11:34:57.973Z,52.20
2019-05-16T11:37:27.928Z,53.30
2019-05-16T11:39:57.380Z,52.50
2019-05-16T11:42:27.982Z,53.20
2019-05-16T11:44:58.079Z,52.70
2019-05-16T11:47:27.677Z,51.80
2019-05-16T11:49:57.126Z,52.60
2019-05-16T11:52:26.537Z,53.10
2019-05-16T11:54:57.190Z,54.80
2019-05-16T11:57:26.774Z,54.50
2019-05-16T11:59:56.821Z,56.20
2019-05-16T12:02:27.798Z,56.10
2019-05-16T12:05:07.614Z,56.40
2019-05-16T12:07:44.287Z,56.80
2019-05-16T12:10:10.589Z,56.50
2019-05-16T12:12:39.916Z,56.20
2019-05-16T12:15:10.305Z,53.50
2019-05-16T12:17:39.672Z,53.30
2019-05-16T12:20:09.429Z,49.80
2019-05-16T12:22:38.750Z,52.20
2019-05-16T12:25:10.782Z,50.30
2019-05-16T12:27:42.417Z,50.10
2019-05-16T12:32:21.999Z,50.80
2019-05-16T12:34:51.324Z,48.80
2019-05-16T12:37:20.652Z,48.70
2019-05-16T12:39:49.976Z,47.60
2019-05-16T12:42:22.329Z,48.80
2019-05-16T12:44:56.220Z,50.30
2019-05-16T12:47:25.149Z,50.20
2019-05-16T12:49:56.502Z,49.60
2019-05-16T12:52:27.161Z,50.40
2019-05-16T12:54:57.078Z,51.50
2019-05-16T12:57:27.599Z,51.40
2019-05-16T12:59:59.114Z,50.10
2019-05-16T13:02:34.139Z,49.40
2019-05-16T13:05:06.556Z,50.60
2019-05-16T13:07:37.678Z,49.20
2019-05-16T13:10:08.210Z,48.60
2019-05-16T13:12:37.863Z,48.40
2019-05-16T13:15:09.105Z,51.00
2019-05-16T13:17:41.501Z,50.10
2019-05-16T13:20:11.260Z,49.20
2019-05-16T13:22:40.568Z,49.70
2019-05-16T13:25:10.092Z,50.60
2019-05-16T13:27:39.391Z,50.40
2019-05-16T13:30:10.185Z,50.40
2019-05-16T13:32:39.576Z,50.30
2019-05-16T13:35:09.120Z,49.50
2019-05-16T13:37:38.454Z,51.90
2019-05-16T13:40:08.488Z,51.80
2019-05-16T13:42:37.821Z,50.40
2019-05-16T13:45:08.032Z,51.60
2019-05-16T13:47:38.418Z,50.00
2019-05-16T13:50:12.053Z,48.40
2019-05-16T13:52:39.261Z,46.60
2019-05-16T13:55:09.636Z,46.40
2019-05-16T13:57:39.004Z,45.40
2019-05-16T14:00:09.593Z,46.00
2019-05-16T14:02:38.961Z,46.20
2019-05-16T14:05:10.433Z,47.20
2019-05-16T14:07:39.736Z,46.10
2019-05-16T14:10:10.010Z,46.60
2019-05-16T14:12:39.318Z,47.90
2019-05-16T14:15:09.290Z,48.30
2019-05-16T14:17:38.765Z,48.90
2019-05-16T14:20:14.437Z,48.30
2019-05-16T14:22:41.658Z,47.60
2019-05-16T14:25:11.393Z,47.00
2019-05-16T14:27:40.719Z,49.20
2019-05-16T14:30:10.847Z,49.40
2019-05-16T14:32:42.838Z,47.70
2019-05-16T14:35:11.586Z,48.60
2019-05-16T14:37:40.909Z,48.50
2019-05-16T14:40:11.374Z,48.60
2019-05-16T14:42:40.787Z,50.50
2019-05-16T14:45:17.821Z,51.80
2019-05-16T14:47:47.981Z,51.00
2019-05-16T14:50:17.875Z,51.40
2019-05-16T14:52:47.511Z,52.20
2019-05-16T14:55:18.405Z,51.50
2019-05-16T14:57:48.381Z,51.90
2019-05-16T15:00:18.821Z,50.30
2019-05-16T15:02:48.493Z,50.80
2019-05-16T15:05:18.189Z,52.20
2019-05-16T15:07:48.278Z,51.60
2019-05-16T15:10:17.305Z,52.80
2019-05-16T15:12:47.567Z,51.80
2019-05-16T15:15:24.289Z,53.60
2019-05-16T15:17:56.632Z,52.70
2019-05-16T15:20:27.868Z,54.20
2019-05-16T15:22:56.764Z,54.10
2019-05-16T15:25:26.632Z,55.70
2019-05-16T15:27:57.535Z,55.40
2019-05-16T15:30:27.241Z,56.60
2019-05-16T15:32:57.022Z,54.70
2019-05-16T15:35:30.070Z,56.20
2019-05-16T15:37:59.064Z,55.70
2019-05-16T15:40:28.452Z,55.30
2019-05-16T15:42:59.126Z,55.90
2019-05-16T15:45:38.153Z,55.00
2019-05-16T15:48:04.024Z,56.30
2019-05-16T15:50:33.489Z,56.50
2019-05-16T15:53:03.337Z,57.20
2019-05-16T15:55:33.096Z,57.20
2019-05-16T15:58:02.594Z,57.10
2019-05-16T16:00:47.932Z,55.80
2019-05-16T16:03:17.710Z,56.70
2019-05-16T16:05:47.227Z,56.20
2019-05-16T16:08:18.222Z,57.80
2019-05-16T16:10:48.129Z,57.50
2019-05-16T16:13:19.867Z,56.80
2019-05-16T16:15:54.090Z,57.30
2019-05-16T16:18:22.030Z,57.10
2019-05-16T16:20:51.681Z,58.30
2019-05-16T16:23:20.999Z,58.70
2019-05-16T16:25:51.513Z,58.40
2019-05-16T16:28:21.300Z,58.50
2019-05-16T16:30:53.258Z,58.70
2019-05-16T16:33:28.960Z,58.80
2019-05-16T16:35:57.146Z,59.20
2019-05-16T16:38:25.988Z,59.80
2019-05-16T16:40:57.456Z,61.10
2019-05-16T16:43:26.408Z,60.20
2019-05-16T16:46:06.105Z,60.30
2019-05-16T16:48:26.817Z,59.30
2019-05-16T16:50:57.383Z,59.60
2019-05-16T16:53:27.613Z,59.50
2019-05-16T16:55:57.098Z,59.90
2019-05-16T16:58:26.850Z,60.80
2019-05-16T17:00:56.246Z,61.80
2019-05-16T17:03:27.284Z,60.80
2019-05-16T17:05:57.182Z,62.10
2019-05-16T17:08:27.292Z,61.50
2019-05-16T17:10:57.648Z,62.70
2019-05-16T17:13:28.629Z,62.70
2019-05-16T17:16:03.483Z,62.30
2019-05-16T17:18:33.694Z,62.90
2019-05-16T17:21:16.893Z,62.40
2019-05-16T17:23:46.690Z,63.90
2019-05-16T17:26:16.147Z,62.60
2019-05-16T17:28:46.737Z,63.60
2019-05-16T17:31:17.038Z,64.90
2019-05-16T17:33:46.507Z,65.00
2019-05-16T17:36:17.186Z,65.50
2019-05-16T17:38:46.868Z,66.30
2019-05-16T17:41:16.839Z,67.60
2019-05-16T17:43:46.955Z,66.30
2019-05-16T17:46:16.531Z,66.50
2019-05-16T17:48:46.871Z,67.50
2019-05-16T17:51:16.880Z,65.00
2019-05-16T17:53:46.468Z,65.40
2019-05-16T17:56:17.114Z,65.70
2019-05-16T17:58:46.973Z,66.00
2019-05-16T18:01:17.152Z,66.50
2019-05-16T18:03:46.061Z,65.70
2019-05-16T18:06:16.992Z,65.80
2019-05-16T18:08:46.951Z,67.00
2019-05-16T18:11:17.870Z,71.00
2019-05-16T18:13:47.356Z,72.20
2019-05-16T18:16:16.689Z,71.10
2019-05-16T18:18:46.901Z,74.70
2019-05-16T18:21:17.032Z,76.30
2019-05-16T18:23:47.181Z,74.90
2019-05-16T18:26:17.309Z,76.10
2019-05-16T18:28:46.863Z,76.90
2019-05-16T18:31:17.221Z,76.90
2019-05-16T18:33:46.585Z,76.90
2019-05-16T18:36:16.979Z,75.90
2019-05-16T18:38:46.753Z,77.50
2019-05-16T18:41:16.660Z,78.20
2019-05-16T18:43:47.233Z,77.80
2019-05-16T18:46:16.264Z,79.80
2019-05-16T18:48:47.195Z,80.60
2019-05-16T18:51:16.747Z,79.70
2019-05-16T18:53:46.552Z,79.70
2019-05-16T18:56:16.782Z,80.50
2019-05-16T18:58:46.710Z,81.20
2019-05-16T19:01:17.672Z,82.30
2019-05-16T19:03:49.025Z,81.70
2019-05-16T19:06:18.259Z,81.90
2019-05-16T19:08:47.639Z,83.70
2019-05-16T19:11:17.619Z,84.00
2019-05-16T19:13:47.540Z,83.60
2019-05-16T19:16:17.115Z,84.30
2019-05-16T19:18:46.512Z,84.10
2019-05-16T19:21:16.833Z,84.80
2019-05-16T19:23:46.408Z,85.60
2019-05-16T19:26:16.673Z,85.30
2019-05-16T19:28:46.700Z,85.20
2019-05-16T19:31:17.255Z,85.80
2019-05-16T19:33:48.900Z,85.60
2019-05-16T19:36:18.473Z,86.00
2019-05-16T19:38:48.324Z,86.20
2019-05-16T19:41:17.944Z,86.20
2019-05-16T19:43:47.810Z,87.30
2019-05-16T19:46:17.300Z,88.10
2019-05-16T19:48:46.900Z,88.00
2019-05-16T19:51:16.411Z,87.80
2019-05-16T19:53:47.132Z,89.00
2019-05-16T19:56:17.767Z,89.00
2019-05-16T19:58:47.372Z,89.00
2019-05-16T20:01:17.257Z,87.60
2019-05-16T20:03:47.140Z,89.10
2019-05-16T20:06:16.931Z,89.80
2019-05-16T20:08:46.407Z,88.50
2019-05-16T20:11:16.850Z,89.10
2019-05-16T20:13:47.350Z,89.10
2019-05-16T20:16:18.506Z,90.20
2019-05-16T20:18:48.001Z,90.60
2019-05-16T20:21:18.516Z,90.20
2019-05-16T20:23:50.906Z,90.30
2019-05-16T20:26:20.295Z,90.50
2019-05-16T20:28:51.298Z,90.30
2019-05-16T20:31:20.711Z,90.40
2019-05-16T20:33:50.125Z,90.70
2019-05-16T20:36:19.420Z,90.60
2019-05-16T20:38:48.736Z,91.00
2019-05-16T20:41:18.069Z,91.30
2019-05-16T20:43:47.601Z,91.50
2019-05-16T20:46:18.015Z,91.40
2019-05-16T20:48:47.318Z,91.10
2019-05-16T20:51:19.913Z,91.30
2019-05-16T20:53:49.775Z,91.20
2019-05-16T20:56:18.708Z,91.00
2019-05-16T20:58:48.650Z,90.90
2019-05-16T21:01:18.187Z,91.30
2019-05-16T21:03:47.559Z,91.10
2019-05-16T21:06:17.186Z,91.20
2019-05-16T21:08:49.633Z,91.20
2019-05-16T21:11:18.871Z,91.80
2019-05-16T21:13:49.051Z,91.70
2019-05-16T21:16:18.605Z,91.50
2019-05-16T21:18:48.032Z,91.80
2019-05-16T21:21:19.341Z,91.80
2019-05-16T21:23:48.359Z,91.80
2019-05-16T21:26:17.763Z,91.90
2019-05-16T21:28:47.091Z,92.00
2019-05-16T21:31:19.401Z,91.80
2019-05-16T21:33:47.630Z,92.10
2019-05-16T21:36:19.022Z,91.90
2019-05-16T21:38:48.142Z,91.80
2019-05-16T21:41:17.455Z,92.30
2019-05-16T21:43:47.062Z,91.40
2019-05-16T21:46:17.104Z,91.70
2019-05-16T21:48:47.365Z,92.10
2019-05-16T21:51:19.768Z,92.20
2019-05-16T21:53:48.006Z,92.10
2019-05-16T21:56:17.758Z,92.10
2019-05-16T21:58:47.450Z,92.40
2019-05-16T22:01:20.009Z,92.50
2019-05-16T22:03:49.685Z,92.60
2019-05-16T22:06:19.163Z,92.60
2019-05-16T22:08:48.561Z,92.90
2019-05-16T22:11:18.099Z,93.20
2019-05-16T22:13:49.061Z,93.00
2019-05-16T22:16:18.451Z,92.60
2019-05-16T22:18:47.776Z,92.70
2019-05-16T22:21:17.103Z,92.50
2019-05-16T22:23:46.666Z,92.60
2019-05-16T22:26:16.855Z,92.60
2019-05-16T22:28:49.386Z,92.90
2019-05-16T22:31:17.429Z,93.30
2019-05-16T22:33:47.034Z,93.00
2019-05-16T22:36:17.356Z,93.00
2019-05-16T22:38:46.906Z,93.30
2019-05-16T22:41:17.308Z,93.50
2019-05-16T22:43:46.880Z,93.20
2019-05-16T22:46:17.834Z,93.70
2019-05-16T22:48:47.597Z,93.70
2019-05-16T22:51:16.892Z,93.90
2019-05-16T22:53:46.222Z,94.30
2019-05-16T22:56:17.391Z,94.40
2019-05-16T22:58:47.051Z,94.70
2019-05-16T23:01:17.635Z,94.90
2019-05-16T23:03:47.160Z,95.20
2019-05-16T23:06:16.548Z,95.40
2019-05-16T23:08:47.213Z,95.60
2019-05-16T23:11:16.548Z,95.90
2019-05-16T23:13:46.235Z,96.10
2019-05-16T23:16:17.136Z,95.70
2019-05-16T23:18:46.888Z,95.80
2019-05-16T23:21:16.980Z,95.90
2019-05-16T23:23:46.639Z,95.90
2019-05-16T23:26:16.716Z,96.30
2019-05-16T23:28:47.189Z,96.50
2019-05-16T23:31:16.781Z,97.00
2019-05-16T23:33:47.053Z,96.80
2019-05-16T23:36:17.424Z,97.00
2019-05-16T23:38:47.472Z,97.10
2019-05-16T23:41:17.350Z,97.00
2019-05-16T23:43:47.395Z,96.80
2019-05-16T23:46:16.880Z,96.70
2019-05-16T23:48:47.202Z,96.30
2019-05-16T23:51:17.056Z,96.40
2019-05-16T23:53:46.572Z,96.50
2019-05-16T23:56:16.741Z,96.70
2019-05-16T23:58:47.700Z,96.60
